sensor_id;sensor_type;location;lat;lon;timestamp;pressure;altitude;pressure_sealevel;temperature
76007;BMP280;64699;0.000;0.000;2024-03-08T00:00:28;101446.13;;;19.76
76007;BMP280;64699;0.000;0.000;2024-03-08T00:02:53;101444.63;;;19.75
76007;BMP280;64699;0.000;0.000;2024-03-08T00:05:19;101443.09;;;19.74
76007;BMP280;64699;0.000;0.000;2024-03-08T00:07:44;101441.63;;;19.73
76007;BMP280;64699;0.000;0.000;2024-03-08T00:10:10;101434.13;;;19.74
76007;BMP280;64699;0.000;0.000;2024-03-08T00:12:36;101441.63;;;19.73
76007;BMP280;64699;0.000;0.000;2024-03-08T00:15:01;101443.66;;;19.73
76007;BMP280;64699;0.000;0.000;2024-03-08T00:17:26;101431.34;;;19.74
76007;BMP280;64699;0.000;0.000;2024-03-08T00:19:52;101433.88;;;19.72
76007;BMP280;64699;0.000;0.000;2024-03-08T00:22:17;101436.63;;;19.72
76007;BMP280;64699;0.000;0.000;2024-03-08T00:24:42;101433.88;;;19.72
76007;BMP280;64699;0.000;0.000;2024-03-08T00:27:08;101428.13;;;19.70
76007;BMP280;64699;0.000;0.000;2024-03-08T00:29:34;101429.38;;;19.69
76007;BMP280;64699;0.000;0.000;2024-03-08T00:31:59;101429.38;;;19.69
76007;BMP280;64699;0.000;0.000;2024-03-08T00:34:24;101430.63;;;19.68
76007;BMP280;64699;0.000;0.000;2024-03-08T00:36:50;101431.91;;;19.67
76007;BMP280;64699;0.000;0.000;2024-03-08T00:39:16;101431.91;;;19.67
76007;BMP280;64699;0.000;0.000;2024-03-08T00:41:41;101427.88;;;19.68
76007;BMP280;64699;0.000;0.000;2024-03-08T00:44:07;101434.88;;;19.69
76007;BMP280;64699;0.000;0.000;2024-03-08T00:46:32;101434.88;;;19.69
76007;BMP280;64699;0.000;0.000;2024-03-08T00:48:57;101427.88;;;19.68
76007;BMP280;64699;0.000;0.000;2024-03-08T00:51:22;101432.66;;;19.67
76007;BMP280;64699;0.000;0.000;2024-03-08T00:53:47;101425.63;;;19.66
76007;BMP280;64699;0.000;0.000;2024-03-08T00:56:12;101423.41;;;19.65
76007;BMP280;64699;0.000;0.000;2024-03-08T00:58:38;101426.91;;;19.65
76007;BMP280;64699;0.000;0.000;2024-03-08T01:01:03;101426.91;;;19.65
76007;BMP280;64699;0.000;0.000;2024-03-08T01:03:29;101419.16;;;19.64
76007;BMP280;64699;0.000;0.000;2024-03-08T01:05:56;101415.63;;;19.63
76007;BMP280;64699;0.000;0.000;2024-03-08T01:08:22;101421.91;;;19.64
76007;BMP280;64699;0.000;0.000;2024-03-08T01:10:48;101417.13;;;19.64
76007;BMP280;64699;0.000;0.000;2024-03-08T01:13:15;101415.63;;;19.63
76007;BMP280;64699;0.000;0.000;2024-03-08T01:15:41;101418.19;;;19.61
76007;BMP280;64699;0.000;0.000;2024-03-08T01:18:06;101418.19;;;19.61
76007;BMP280;64699;0.000;0.000;2024-03-08T01:20:31;101417.41;;;19.61
76007;BMP280;64699;0.000;0.000;2024-03-08T01:22:56;101418.19;;;19.61
76007;BMP280;64699;0.000;0.000;2024-03-08T01:25:22;101408.91;;;19.59
76007;BMP280;64699;0.000;0.000;2024-03-08T01:27:47;101402.13;;;19.60
76007;BMP280;64699;0.000;0.000;2024-03-08T01:30:13;101404.66;;;19.58
76007;BMP280;64699;0.000;0.000;2024-03-08T01:32:38;101405.19;;;19.56
76007;BMP280;64699;0.000;0.000;2024-03-08T01:35:03;101414.94;;;19.57
76007;BMP280;64699;0.000;0.000;2024-03-08T01:37:28;101402.91;;;19.55
76007;BMP280;64699;0.000;0.000;2024-03-08T01:39:54;101401.69;;;19.56
76007;BMP280;64699;0.000;0.000;2024-03-08T01:42:19;101411.19;;;19.55
76007;BMP280;64699;0.000;0.000;2024-03-08T01:44:44;101408.44;;;19.55
76007;BMP280;64699;0.000;0.000;2024-03-08T01:47:10;101410.44;;;19.54
76007;BMP280;64699;0.000;0.000;2024-03-08T01:49:36;101407.69;;;19.54
76007;BMP280;64699;0.000;0.000;2024-03-08T01:52:01;101413.22;;;19.54
76007;BMP280;64699;0.000;0.000;2024-03-08T01:54:26;101396.66;;;19.54
76007;BMP280;64699;0.000;0.000;2024-03-08T01:56:52;101407.19;;;19.56
76007;BMP280;64699;0.000;0.000;2024-03-08T01:59:18;101404.44;;;19.56
76007;BMP280;64699;0.000;0.000;2024-03-08T02:01:44;101401.41;;;19.54
76007;BMP280;64699;0.000;0.000;2024-03-08T02:04:09;101393.16;;;19.54
76007;BMP280;64699;0.000;0.000;2024-03-08T02:06:35;101387.63;;;19.54
76007;BMP280;64699;0.000;0.000;2024-03-08T02:09:00;101385.44;;;19.52
76007;BMP280;64699;0.000;0.000;2024-03-08T02:11:25;101381.91;;;19.52
76007;BMP280;64699;0.000;0.000;2024-03-08T02:13:51;101393.69;;;19.52
76007;BMP280;64699;0.000;0.000;2024-03-08T02:16:22;101381.16;;;19.51
76007;BMP280;64699;0.000;0.000;2024-03-08T02:18:47;101385.91;;;19.51
76007;BMP280;64699;0.000;0.000;2024-03-08T02:21:12;101380.41;;;19.51
76007;BMP280;64699;0.000;0.000;2024-03-08T02:23:38;101384.44;;;19.50
76007;BMP280;64699;0.000;0.000;2024-03-08T02:26:05;101377.41;;;19.49
76007;BMP280;64699;0.000;0.000;2024-03-08T02:28:30;101388.44;;;19.49
76007;BMP280;64699;0.000;0.000;2024-03-08T02:30:55;101382.94;;;19.49
76007;BMP280;64699;0.000;0.000;2024-03-08T02:33:21;101375.94;;;19.48
76007;BMP280;64699;0.000;0.000;2024-03-08T02:35:47;101374.41;;;19.47
76007;BMP280;64699;0.000;0.000;2024-03-08T02:38:16;101377.19;;;19.47
76007;BMP280;64699;0.000;0.000;2024-03-08T02:40:45;101371.41;;;19.45
76007;BMP280;64699;0.000;0.000;2024-03-08T02:43:11;101371.41;;;19.45
76007;BMP280;64699;0.000;0.000;2024-03-08T02:45:36;101372.72;;;19.44
76007;BMP280;64699;0.000;0.000;2024-03-08T02:48:02;101375.47;;;19.44
76007;BMP280;64699;0.000;0.000;2024-03-08T02:50:27;101375.22;;;19.42
76007;BMP280;64699;0.000;0.000;2024-03-08T02:52:52;101375.97;;;19.42
76007;BMP280;64699;0.000;0.000;2024-03-08T02:55:17;101366.19;;;19.41
76007;BMP280;64699;0.000;0.000;2024-03-08T02:57:43;101368.75;;;19.39
76007;BMP280;64699;0.000;0.000;2024-03-08T03:00:12;101373.50;;;19.39
76007;BMP280;64699;0.000;0.000;2024-03-08T03:02:38;101366.72;;;19.40
76007;BMP280;64699;0.000;0.000;2024-03-08T03:05:03;101372.97;;;19.40
76007;BMP280;64699;0.000;0.000;2024-03-08T03:07:31;101374.97;;;19.40
76007;BMP280;64699;0.000;0.000;2024-03-08T03:09:56;101367.97;;;19.39
76007;BMP280;64699;0.000;0.000;2024-03-08T03:12:21;101365.22;;;19.39
76007;BMP280;64699;0.000;0.000;2024-03-08T03:14:46;101366.47;;;19.38
76007;BMP280;64699;0.000;0.000;2024-03-08T03:17:12;101365.75;;;19.37
76007;BMP280;64699;0.000;0.000;2024-03-08T03:19:40;101367.75;;;19.37
76007;BMP280;64699;0.000;0.000;2024-03-08T03:22:05;101369.75;;;19.36
76007;BMP280;64699;0.000;0.000;2024-03-08T03:24:30;101369.03;;;19.36
76007;BMP280;64699;0.000;0.000;2024-03-08T03:26:57;101364.97;;;19.37
76007;BMP280;64699;0.000;0.000;2024-03-08T03:29:22;101364.97;;;19.37
76007;BMP280;64699;0.000;0.000;2024-03-08T03:31:47;101370.50;;;19.37
76007;BMP280;64699;0.000;0.000;2024-03-08T03:34:13;101358.72;;;19.36
76007;BMP280;64699;0.000;0.000;2024-03-08T03:36:38;101362.00;;;19.35
76007;BMP280;64699;0.000;0.000;2024-03-08T03:39:07;101365.50;;;19.35
76007;BMP280;64699;0.000;0.000;2024-03-08T03:41:37;101355.00;;;19.34
76007;BMP280;64699;0.000;0.000;2024-03-08T03:44:03;101356.25;;;19.33
76007;BMP280;64699;0.000;0.000;2024-03-08T03:46:28;101355.50;;;19.32
76007;BMP280;64699;0.000;0.000;2024-03-08T03:48:54;101356.25;;;19.33
76007;BMP280;64699;0.000;0.000;2024-03-08T03:51:20;101359.03;;;19.33
76007;BMP280;64699;0.000;0.000;2024-03-08T03:53:46;101364.53;;;19.33
76007;BMP280;64699;0.000;0.000;2024-03-08T03:56:11;101353.25;;;19.31
76007;BMP280;64699;0.000;0.000;2024-03-08T03:58:36;101360.81;;;19.30
76007;BMP280;64699;0.000;0.000;2024-03-08T04:01:04;101360.03;;;19.30
76007;BMP280;64699;0.000;0.000;2024-03-08T04:03:29;101349.00;;;19.30
76007;BMP280;64699;0.000;0.000;2024-03-08T04:05:54;101349.50;;;19.28
76007;BMP280;64699;0.000;0.000;2024-03-08T04:08:19;101351.53;;;19.28
76007;BMP280;64699;0.000;0.000;2024-03-08T04:10:44;101349.50;;;19.28
76007;BMP280;64699;0.000;0.000;2024-03-08T04:13:10;101346.00;;;19.28
76007;BMP280;64699;0.000;0.000;2024-03-08T04:15:35;101349.28;;;19.26
76007;BMP280;64699;0.000;0.000;2024-03-08T04:18:00;101344.56;;;19.27
76007;BMP280;64699;0.000;0.000;2024-03-08T04:20:25;101345.81;;;19.26
76007;BMP280;64699;0.000;0.000;2024-03-08T04:22:51;101340.28;;;19.26
76007;BMP280;64699;0.000;0.000;2024-03-08T04:25:16;101341.56;;;19.25
76007;BMP280;64699;0.000;0.000;2024-03-08T04:27:41;101350.31;;;19.23
76007;BMP280;64699;0.000;0.000;2024-03-08T04:30:06;101344.31;;;19.25
76007;BMP280;64699;0.000;0.000;2024-03-08T04:32:32;101345.81;;;19.26
76007;BMP280;64699;0.000;0.000;2024-03-08T04:34:57;101345.81;;;19.26
76007;BMP280;64699;0.000;0.000;2024-03-08T04:37:22;101340.28;;;19.26
76007;BMP280;64699;0.000;0.000;2024-03-08T04:39:48;101348.28;;;19.24
76007;BMP280;64699;0.000;0.000;2024-03-08T04:42:13;101347.56;;;19.23
76007;BMP280;64699;0.000;0.000;2024-03-08T04:44:38;101344.81;;;19.23
76007;BMP280;64699;0.000;0.000;2024-03-08T04:47:04;101344.81;;;19.23
76007;BMP280;64699;0.000;0.000;2024-03-08T04:49:31;101342.78;;;19.24
76007;BMP280;64699;0.000;0.000;2024-03-08T04:51:56;101340.78;;;19.24
76007;BMP280;64699;0.000;0.000;2024-03-08T04:54:21;101337.53;;;19.26
76007;BMP280;64699;0.000;0.000;2024-03-08T04:56:46;101346.00;;;19.28
76007;BMP280;64699;0.000;0.000;2024-03-08T04:59:11;101345.53;;;19.29
76007;BMP280;64699;0.000;0.000;2024-03-08T05:01:36;101345.00;;;19.31
76007;BMP280;64699;0.000;0.000;2024-03-08T05:04:02;101343.22;;;19.33
76007;BMP280;64699;0.000;0.000;2024-03-08T05:06:28;101345.47;;;19.35
76007;BMP280;64699;0.000;0.000;2024-03-08T05:08:53;101343.69;;;19.37
76007;BMP280;64699;0.000;0.000;2024-03-08T05:11:19;101342.44;;;19.38
76007;BMP280;64699;0.000;0.000;2024-03-08T05:13:44;101343.41;;;19.41
76007;BMP280;64699;0.000;0.000;2024-03-08T05:16:10;101351.91;;;19.43
76007;BMP280;64699;0.000;0.000;2024-03-08T05:18:35;101343.59;;;19.48
76007;BMP280;64699;0.000;0.000;2024-03-08T05:21:01;101350.59;;;19.49
76007;BMP280;64699;0.000;0.000;2024-03-08T05:23:28;101352.84;;;19.51
76007;BMP280;64699;0.000;0.000;2024-03-08T05:25:54;101349.59;;;19.52
76007;BMP280;64699;0.000;0.000;2024-03-08T05:28:19;101341.78;;;19.56
76007;BMP280;64699;0.000;0.000;2024-03-08T05:30:45;101336.19;;;19.62
76007;BMP280;64699;0.000;0.000;2024-03-08T05:33:10;101343.94;;;19.63
76007;BMP280;64699;0.000;0.000;2024-03-08T05:35:36;101345.94;;;19.68
76007;BMP280;64699;0.000;0.000;2024-03-08T05:38:01;101341.16;;;19.69
76007;BMP280;64699;0.000;0.000;2024-03-08T05:40:26;101332.34;;;19.70
76007;BMP280;64699;0.000;0.000;2024-03-08T05:42:52;101341.63;;;19.73
76007;BMP280;64699;0.000;0.000;2024-03-08T05:45:17;101340.81;;;19.78
76007;BMP280;64699;0.000;0.000;2024-03-08T05:47:42;101337.75;;;19.81
76007;BMP280;64699;0.000;0.000;2024-03-08T05:50:07;101341.47;;;19.84
76007;BMP280;64699;0.000;0.000;2024-03-08T05:52:35;101333.44;;;19.86
76007;BMP280;64699;0.000;0.000;2024-03-08T05:55:00;101336.59;;;19.95
76007;BMP280;64699;0.000;0.000;2024-03-08T05:57:25;101333.75;;;20.00
76007;BMP280;64699;0.000;0.000;2024-03-08T05:59:51;101332.75;;;19.80
76007;BMP280;64699;0.000;0.000;2024-03-08T06:02:16;101334.31;;;19.75
76007;BMP280;64699;0.000;0.000;2024-03-08T06:04:45;101332.78;;;19.74
76007;BMP280;64699;0.000;0.000;2024-03-08T06:07:10;101338.09;;;19.72
76007;BMP280;64699;0.000;0.000;2024-03-08T06:09:37;101333.84;;;19.71
76007;BMP280;64699;0.000;0.000;2024-03-08T06:12:02;101331.84;;;19.72
76007;BMP280;64699;0.000;0.000;2024-03-08T06:14:29;101343.59;;;19.72
76007;BMP280;64699;0.000;0.000;2024-03-08T06:16:54;101346.38;;;19.72
76007;BMP280;64699;0.000;0.000;2024-03-08T06:19:20;101342.34;;;19.73
76007;BMP280;64699;0.000;0.000;2024-03-08T06:21:45;101350.88;;;19.75
76007;BMP280;64699;0.000;0.000;2024-03-08T06:24:10;101350.09;;;19.75
76007;BMP280;64699;0.000;0.000;2024-03-08T06:26:35;101344.59;;;19.75
76007;BMP280;64699;0.000;0.000;2024-03-08T06:29:02;101343.16;;;19.68
76007;BMP280;64699;0.000;0.000;2024-03-08T06:31:28;101343.75;;;19.85
76007;BMP280;64699;0.000;0.000;2024-03-08T06:33:53;101349.19;;;19.67
76007;BMP280;64699;0.000;0.000;2024-03-08T06:36:19;101336.47;;;19.58
76007;BMP280;64699;0.000;0.000;2024-03-08T06:38:46;101346.59;;;19.21
76007;BMP280;64699;0.000;0.000;2024-03-08T06:41:11;101359.06;;;18.41
76007;BMP280;64699;0.000;0.000;2024-03-08T06:43:43;101345.66;;;18.73
76007;BMP280;64699;0.000;0.000;2024-03-08T06:46:08;101353.66;;;19.11
76007;BMP280;64699;0.000;0.000;2024-03-08T06:48:34;101358.69;;;19.07
76007;BMP280;64699;0.000;0.000;2024-03-08T06:51:00;101350.22;;;19.05
76007;BMP280;64699;0.000;0.000;2024-03-08T06:53:25;101348.56;;;19.26
76007;BMP280;64699;0.000;0.000;2024-03-08T06:55:50;101351.28;;;19.31
76007;BMP280;64699;0.000;0.000;2024-03-08T06:58:15;101356.50;;;19.35
76007;BMP280;64699;0.000;0.000;2024-03-08T07:00:41;101352.69;;;19.38
76007;BMP280;64699;0.000;0.000;2024-03-08T07:03:08;101350.72;;;19.38
76007;BMP280;64699;0.000;0.000;2024-03-08T07:05:37;101360.97;;;19.38
76007;BMP280;64699;0.000;0.000;2024-03-08T07:08:02;101352.69;;;19.38
76007;BMP280;64699;0.000;0.000;2024-03-08T07:10:27;101355.00;;;19.34
76007;BMP280;64699;0.000;0.000;2024-03-08T07:12:53;101344.72;;;19.34
76007;BMP280;64699;0.000;0.000;2024-03-08T07:15:19;101346.97;;;19.36
76007;BMP280;64699;0.000;0.000;2024-03-08T07:17:44;101344.22;;;19.36
76007;BMP280;64699;0.000;0.000;2024-03-08T07:20:10;101352.50;;;19.36
76007;BMP280;64699;0.000;0.000;2024-03-08T07:22:37;101359.03;;;19.33
76007;BMP280;64699;0.000;0.000;2024-03-08T07:25:04;101341.63;;;19.14
76007;BMP280;64699;0.000;0.000;2024-03-08T07:27:44;101340.91;;;19.43
76007;BMP280;64699;0.000;0.000;2024-03-08T07:30:11;101343.88;;;19.93
76007;BMP280;64699;0.000;0.000;2024-03-08T07:32:36;101339.63;;;20.15
76007;BMP280;64699;0.000;0.000;2024-03-08T07:35:01;101337.03;;;20.23
76007;BMP280;64699;0.000;0.000;2024-03-08T07:37:27;101339.50;;;20.26
76007;BMP280;64699;0.000;0.000;2024-03-08T07:39:52;101334.22;;;20.04
76007;BMP280;64699;0.000;0.000;2024-03-08T07:42:17;101330.84;;;19.93
76007;BMP280;64699;0.000;0.000;2024-03-08T07:44:42;101325.63;;;19.90
76007;BMP280;64699;0.000;0.000;2024-03-08T07:47:08;101323.94;;;19.87
76007;BMP280;64699;0.000;0.000;2024-03-08T07:49:34;101326.69;;;19.87
76007;BMP280;64699;0.000;0.000;2024-03-08T07:51:59;101329.44;;;19.87
76007;BMP280;64699;0.000;0.000;2024-03-08T07:54:25;101320.91;;;19.85
76007;BMP280;64699;0.000;0.000;2024-03-08T07:56:51;101326.44;;;19.85
76007;BMP280;64699;0.000;0.000;2024-03-08T07:59:16;101330.16;;;19.87
76007;BMP280;64699;0.000;0.000;2024-03-08T08:01:41;101333.44;;;19.86
76007;BMP280;64699;0.000;0.000;2024-03-08T08:04:06;101327.41;;;19.87
76007;BMP280;64699;0.000;0.000;2024-03-08T08:06:31;101328.69;;;19.86
76007;BMP280;64699;0.000;0.000;2024-03-08T08:08:58;101323.94;;;19.87
76007;BMP280;64699;0.000;0.000;2024-03-08T08:11:25;101323.94;;;19.87
76007;BMP280;64699;0.000;0.000;2024-03-08T08:13:50;101324.63;;;19.87
76007;BMP280;64699;0.000;0.000;2024-03-08T08:16:16;101325.41;;;19.88
76007;BMP280;64699;0.000;0.000;2024-03-08T08:18:41;101319.66;;;19.86
76007;BMP280;64699;0.000;0.000;2024-03-08T08:21:06;101321.69;;;19.85
76007;BMP280;64699;0.000;0.000;2024-03-08T08:23:31;101317.66;;;19.86
76007;BMP280;64699;0.000;0.000;2024-03-08T08:25:57;101316.91;;;19.86
76007;BMP280;64699;0.000;0.000;2024-03-08T08:28:22;101323.16;;;19.86
76007;BMP280;64699;0.000;0.000;2024-03-08T08:30:47;101311.16;;;19.84
76007;BMP280;64699;0.000;0.000;2024-03-08T08:33:13;101314.91;;;19.86
76007;BMP280;64699;0.000;0.000;2024-03-08T08:35:38;101311.38;;;19.86
76007;BMP280;64699;0.000;0.000;2024-03-08T08:38:04;101305.63;;;19.84
76007;BMP280;64699;0.000;0.000;2024-03-08T08:40:29;101305.88;;;19.86
76007;BMP280;64699;0.000;0.000;2024-03-08T08:42:56;101311.38;;;19.86
76007;BMP280;64699;0.000;0.000;2024-03-08T08:45:24;101303.34;;;19.88
76007;BMP280;64699;0.000;0.000;2024-03-08T08:47:50;101307.31;;;19.92
76007;BMP280;64699;0.000;0.000;2024-03-08T08:50:15;101301.25;;;19.94
76007;BMP280;64699;0.000;0.000;2024-03-08T08:52:41;101297.00;;;19.93
76007;BMP280;64699;0.000;0.000;2024-03-08T08:55:08;101299.13;;;19.87
76007;BMP280;64699;0.000;0.000;2024-03-08T08:57:34;101293.59;;;19.87
76007;BMP280;64699;0.000;0.000;2024-03-08T09:00:00;101290.84;;;19.87
76007;BMP280;64699;0.000;0.000;2024-03-08T09:02:25;101294.09;;;19.85
76007;BMP280;64699;0.000;0.000;2024-03-08T09:04:50;101284.56;;;19.86
76007;BMP280;64699;0.000;0.000;2024-03-08T09:07:16;101290.06;;;19.86
76007;BMP280;64699;0.000;0.000;2024-03-08T09:09:43;101288.59;;;19.85
76007;BMP280;64699;0.000;0.000;2024-03-08T09:12:08;101283.06;;;19.85
76007;BMP280;64699;0.000;0.000;2024-03-08T09:14:36;101292.06;;;19.86
76007;BMP280;64699;0.000;0.000;2024-03-08T09:17:01;101287.09;;;19.84
76007;BMP280;64699;0.000;0.000;2024-03-08T09:19:27;101277.75;;;19.87
76007;BMP280;64699;0.000;0.000;2024-03-08T09:21:53;101275.75;;;19.88
76007;BMP280;64699;0.000;0.000;2024-03-08T09:24:19;101271.28;;;19.85
76007;BMP280;64699;0.000;0.000;2024-03-08T09:26:44;101276.78;;;19.85
76007;BMP280;64699;0.000;0.000;2024-03-08T09:29:09;101265.75;;;19.85
76007;BMP280;64699;0.000;0.000;2024-03-08T09:31:35;101266.81;;;19.82
76007;BMP280;64699;0.000;0.000;2024-03-08T09:34:02;101265.03;;;19.84
76007;BMP280;64699;0.000;0.000;2024-03-08T09:36:28;101261.81;;;19.80
76007;BMP280;64699;0.000;0.000;2024-03-08T09:38:53;101257.75;;;19.87
76007;BMP280;64699;0.000;0.000;2024-03-08T09:41:18;101264.72;;;19.88
76007;BMP280;64699;0.000;0.000;2024-03-08T09:43:43;101259.22;;;19.88
76007;BMP280;64699;0.000;0.000;2024-03-08T09:46:09;101262.50;;;19.86
76007;BMP280;64699;0.000;0.000;2024-03-08T09:48:36;101259.22;;;19.88
76007;BMP280;64699;0.000;0.000;2024-03-08T09:51:01;101259.88;;;19.94
76007;BMP280;64699;0.000;0.000;2024-03-08T09:53:27;101255.50;;;20.03
76007;BMP280;64699;0.000;0.000;2024-03-08T09:55:53;101250.41;;;20.07
76007;BMP280;64699;0.000;0.000;2024-03-08T09:58:18;101255.22;;;20.07
76007;BMP280;64699;0.000;0.000;2024-03-08T10:00:46;101253.72;;;20.06
76007;BMP280;64699;0.000;0.000;2024-03-08T10:03:11;101253.16;;;20.07
76007;BMP280;64699;0.000;0.000;2024-03-08T10:05:39;101250.97;;;20.06
76007;BMP280;64699;0.000;0.000;2024-03-08T10:08:04;101243.44;;;20.06
76007;BMP280;64699;0.000;0.000;2024-03-08T10:10:33;101245.44;;;20.06
76007;BMP280;64699;0.000;0.000;2024-03-08T10:12:58;101252.97;;;20.05
76007;BMP280;64699;0.000;0.000;2024-03-08T10:15:26;101251.47;;;20.04
76007;BMP280;64699;0.000;0.000;2024-03-08T10:17:53;101244.69;;;20.05
76007;BMP280;64699;0.000;0.000;2024-03-08T10:20:18;101244.47;;;20.03
76007;BMP280;64699;0.000;0.000;2024-03-08T10:22:44;101243.19;;;20.04
76007;BMP280;64699;0.000;0.000;2024-03-08T10:25:12;101245.75;;;20.02
76007;BMP280;64699;0.000;0.000;2024-03-08T10:27:40;101238.72;;;20.01
76007;BMP280;64699;0.000;0.000;2024-03-08T10:30:06;101245.50;;;20.00
76007;BMP280;64699;0.000;0.000;2024-03-08T10:32:31;101236.47;;;20.00
76007;BMP280;64699;0.000;0.000;2024-03-08T10:34:56;101233.72;;;20.00
76007;BMP280;64699;0.000;0.000;2024-03-08T10:37:22;101235.00;;;19.99
76007;BMP280;64699;0.000;0.000;2024-03-08T10:42:52;101226.47;;;19.97
76007;BMP280;64699;0.000;0.000;2024-03-08T10:45:19;101221.72;;;19.98
76007;BMP280;64699;0.000;0.000;2024-03-08T10:47:49;101214.50;;;19.95
76007;BMP280;64699;0.000;0.000;2024-03-08T10:50:18;101218.75;;;19.96
76007;BMP280;64699;0.000;0.000;2024-03-08T10:52:47;101223.72;;;19.97
76007;BMP280;64699;0.000;0.000;2024-03-08T10:55:13;101211.97;;;19.97
76007;BMP280;64699;0.000;0.000;2024-03-08T10:57:40;101211.97;;;19.97
76007;BMP280;64699;0.000;0.000;2024-03-08T11:00:06;101216.72;;;19.96
76007;BMP280;64699;0.000;0.000;2024-03-08T11:02:35;101215.97;;;19.96
76007;BMP280;64699;0.000;0.000;2024-03-08T11:05:00;101213.75;;;19.94
76007;BMP280;64699;0.000;0.000;2024-03-08T11:07:26;101205.97;;;19.93
76007;BMP280;64699;0.000;0.000;2024-03-08T11:09:53;101202.50;;;19.92
76007;BMP280;64699;0.000;0.000;2024-03-08T11:12:22;101205.75;;;19.72
76007;BMP280;64699;0.000;0.000;2024-03-08T11:14:50;101207.78;;;19.72
76007;BMP280;64699;0.000;0.000;2024-03-08T11:17:16;101208.81;;;19.69
76007;BMP280;64699;0.000;0.000;2024-03-08T11:19:47;101202.22;;;19.53
76007;BMP280;64699;0.000;0.000;2024-03-08T11:25:10;101201.38;;;19.58
76007;BMP280;64699;0.000;0.000;2024-03-08T11:28:06;101188.59;;;19.61
76007;BMP280;64699;0.000;0.000;2024-03-08T11:30:31;101185.13;;;19.60
76007;BMP280;64699;0.000;0.000;2024-03-08T11:32:56;101191.34;;;19.61
76007;BMP280;64699;0.000;0.000;2024-03-08T11:35:26;101194.13;;;19.61
76007;BMP280;64699;0.000;0.000;2024-03-08T11:37:51;101189.88;;;19.60
76007;BMP280;64699;0.000;0.000;2024-03-08T11:40:16;101180.63;;;19.57
76007;BMP280;64699;0.000;0.000;2024-03-08T11:42:48;101179.13;;;19.56
76007;BMP280;64699;0.000;0.000;2024-03-08T11:45:14;101165.84;;;19.55
76007;BMP280;64699;0.000;0.000;2024-03-08T11:47:42;101168.09;;;19.56
76007;BMP280;64699;0.000;0.000;2024-03-08T11:50:10;101167.38;;;19.56
76007;BMP280;64699;0.000;0.000;2024-03-08T11:52:36;101169.38;;;19.55
76007;BMP280;64699;0.000;0.000;2024-03-08T11:55:02;101165.13;;;19.54
76007;BMP280;64699;0.000;0.000;2024-03-08T11:57:28;101160.34;;;19.55
76007;BMP280;64699;0.000;0.000;2024-03-08T11:59:53;101156.09;;;19.54
76007;BMP280;64699;0.000;0.000;2024-03-08T12:02:20;101147.81;;;19.54
76007;BMP280;64699;0.000;0.000;2024-03-08T12:04:45;101158.84;;;19.54
76007;BMP280;64699;0.000;0.000;2024-03-08T12:07:14;101147.81;;;19.54
76007;BMP280;64699;0.000;0.000;2024-03-08T12:09:43;101155.88;;;19.52
76007;BMP280;64699;0.000;0.000;2024-03-08T12:12:11;101144.09;;;19.51
76007;BMP280;64699;0.000;0.000;2024-03-08T12:14:37;101139.34;;;19.52
76007;BMP280;64699;0.000;0.000;2024-03-08T12:17:03;101137.84;;;19.51
76007;BMP280;64699;0.000;0.000;2024-03-08T12:19:29;101144.44;;;19.48
76007;BMP280;64699;0.000;0.000;2024-03-08T12:21:54;101136.34;;;19.50
76007;BMP280;64699;0.000;0.000;2024-03-08T12:24:20;101134.88;;;19.49
76007;BMP280;64699;0.000;0.000;2024-03-08T12:26:46;101136.34;;;19.50
76007;BMP280;64699;0.000;0.000;2024-03-08T12:29:16;101131.38;;;19.48
76007;BMP280;64699;0.000;0.000;2024-03-08T12:31:43;101119.34;;;19.46
76007;BMP280;64699;0.000;0.000;2024-03-08T12:34:08;101121.63;;;19.47
76007;BMP280;64699;0.000;0.000;2024-03-08T12:36:35;101122.13;;;19.46
76007;BMP280;64699;0.000;0.000;2024-03-08T12:39:01;101124.88;;;19.46
76007;BMP280;64699;0.000;0.000;2024-03-08T12:41:26;101118.63;;;19.45
76007;BMP280;64699;0.000;0.000;2024-03-08T12:43:52;101115.88;;;19.45
76007;BMP280;64699;0.000;0.000;2024-03-08T12:46:17;101114.41;;;19.44
76007;BMP280;64699;0.000;0.000;2024-03-08T12:48:42;101106.13;;;19.44
76007;BMP280;64699;0.000;0.000;2024-03-08T12:51:12;101107.59;;;19.45
76007;BMP280;64699;0.000;0.000;2024-03-08T12:53:37;101109.59;;;19.45
76007;BMP280;64699;0.000;0.000;2024-03-08T12:56:05;101101.13;;;19.43
76007;BMP280;64699;0.000;0.000;2024-03-08T12:58:33;101107.13;;;19.41
76007;BMP280;64699;0.000;0.000;2024-03-08T13:00:58;101102.16;;;19.40
76007;BMP280;64699;0.000;0.000;2024-03-08T13:03:24;101095.38;;;19.41
76007;BMP280;64699;0.000;0.000;2024-03-08T13:05:49;101092.09;;;19.42
76007;BMP280;64699;0.000;0.000;2024-03-08T13:08:14;101088.97;;;19.51
76007;BMP280;64699;0.000;0.000;2024-03-08T13:10:40;101090.69;;;19.54
76007;BMP280;64699;0.000;0.000;2024-03-08T13:13:08;101085.25;;;19.49
76007;BMP280;64699;0.000;0.000;2024-03-08T13:15:34;101080.66;;;19.57
76007;BMP280;64699;0.000;0.000;2024-03-08T13:18:00;101082.13;;;19.58
76007;BMP280;64699;0.000;0.000;2024-03-08T13:20:26;101071.69;;;19.51
76007;BMP280;64699;0.000;0.000;2024-03-08T13:22:53;101078.47;;;19.50
76007;BMP280;64699;0.000;0.000;2024-03-08T13:25:18;101073.28;;;19.46
76007;BMP280;64699;0.000;0.000;2024-03-08T13:27:45;101073.78;;;19.45
76007;BMP280;64699;0.000;0.000;2024-03-08T13:30:14;101067.00;;;19.46
76007;BMP280;64699;0.000;0.000;2024-03-08T13:32:43;101055.97;;;19.46
76007;BMP280;64699;0.000;0.000;2024-03-08T13:35:08;101058.44;;;19.49
76007;BMP280;64699;0.000;0.000;2024-03-08T13:37:38;101055.91;;;19.51
76007;BMP280;64699;0.000;0.000;2024-03-08T13:40:03;101055.41;;;19.53
76007;BMP280;64699;0.000;0.000;2024-03-08T13:42:30;101051.16;;;19.52
76007;BMP280;64699;0.000;0.000;2024-03-08T13:44:55;101048.84;;;19.56
76007;BMP280;64699;0.000;0.000;2024-03-08T13:47:21;101050.09;;;19.55
76007;BMP280;64699;0.000;0.000;2024-03-08T13:49:46;101044.56;;;19.55
76007;BMP280;64699;0.000;0.000;2024-03-08T13:52:11;101044.06;;;19.56
76007;BMP280;64699;0.000;0.000;2024-03-08T13:54:41;101046.81;;;19.56
76007;BMP280;64699;0.000;0.000;2024-03-08T13:57:06;101047.59;;;19.57
76007;BMP280;64699;0.000;0.000;2024-03-08T13:59:32;101043.34;;;19.56
76007;BMP280;64699;0.000;0.000;2024-03-08T14:01:58;101048.31;;;19.57
76007;BMP280;64699;0.000;0.000;2024-03-08T14:04:24;101038.03;;;19.58
76007;BMP280;64699;0.000;0.000;2024-03-08T14:06:51;101033.25;;;19.58